Red Lake Falls, Minnesota
Current Conditions -  °F | °C
As of 11:35 PM on Friday 24 Oct 2014 (Local Time) from KTVF Reporting Station
Clear Clear  
Wind Chill: 52°   Ceiling: Unl
Heat Index: 52°   Visibility: 10mi
Dew Point: 32°   Wind: 15mph
Humidity: 47%   Direction: 280°W
Pressure: 29.88"   Gusts: NA
Location:  47.88°N, 96.27°W
Report Text: KTVF 250435Z AUTO 28013KT 10SM CLR 11/00 A2988 RMK AO1
Loading
Personal Weather Stations






























Interactive Weather Map
Tropical Storm Tracking
New forecast layout! Learn more

10-Day Weather Forecast

Advertisements
Track Severe Weather on mobile